Time;durP1;ratioP1;P1;durP2;ratioP2;P2;SDS_P1;SDS_P2;PMS_P1;PMS_P2;Temp;Humidity;BMP_temperature;BMP_pressure;BME280_temperature;BME280_humidity;BME280_pressure;Samples;Min_cycle;Max_cycle;Signal;HPM_P1;HPM_P2
2023/06/20 00:03:10;;;;;;;;;;;;;;;21.4;45.8623;101339.7;;;;-68
2023/06/20 00:08:10;;;;;;;;;;;;;;;21.4;45.94238;101336.3;;;;-68
2023/06/20 00:13:13;;;;;;;;;;;;;;;21.41;45.97754;101343;;;;-68
2023/06/20 00:18:10;;;;;;;;;;;;;;;21.36;46.14551;101344.8;;;;-68
2023/06/20 00:23:12;;;;;;;;;;;;;;;21.36;46.21289;101347.3;;;;-68
2023/06/20 00:28:12;;;;;;;;;;;;;;;21.36;46.07715;101341.5;;;;-68
2023/06/20 00:28:22;;;;;;;0.9;0.1;;;;;;;;;;;;;-68
2023/06/20 00:33:10;;;;;;;;;;;;;;;21.34;46.65918;101333;;;;-68
2023/06/20 00:38:10;;;;;;;;;;;;;;;21.34;46.8418;101326.7;;;;-68
2023/06/20 00:43:12;;;;;;;;;;;;;;;21.33;46.85156;101332.6;;;;-67
2023/06/20 00:48:10;;;;;;;;;;;;;;;21.32;47.24023;101333.8;;;;-69
2023/06/20 00:53:13;;;;;;;;;;;;;;;21.3;47.1582;101332;;;;-68
2023/06/20 00:58:10;;;;;;;;;;;;;;;21.3;47.24902;101331.3;;;;-68
2023/06/20 00:58:20;;;;;;;0.2;0;;;;;;;;;;;;;-68
2023/06/20 01:03:12;;;;;;;;;;;;;;;21.29;47.80957;101326;;;;-68
2023/06/20 01:08:15;;;;;;;;;;;;;;;21.3;47.61621;101321.5;;;;-69
2023/06/20 01:13:14;;;;;;;;;;;;;;;21.3;47.62695;101320.7;;;;-69
2023/06/20 01:18:13;;;;;;;;;;;;;;;21.27;48.09277;101313.2;;;;-69
2023/06/20 01:23:12;;;;;;;;;;;;;;;21.3;48.51953;101309.6;;;;-69
2023/06/20 01:28:19;;;;;;;;;;;;;;;21.27;48.08301;101306.3;;;;-67
2023/06/20 01:28:31;;;;;;;0.2;0;;;;;;;;;;;;;-67
2023/06/20 01:33:12;;;;;;;;;;;;;;;21.25;48.27441;101299.4;;;;-68
2023/06/20 01:38:12;;;;;;;;;;;;;;;21.24;48.01074;101304.1;;;;-69
2023/06/20 01:43:11;;;;;;;;;;;;;;;21.21;48.64941;101298;;;;-68
2023/06/20 01:48:12;;;;;;;;;;;;;;;21.19;48.28027;101296.2;;;;-69
2023/06/20 01:53:11;;;;;;;;;;;;;;;21.18;48.48438;101292;;;;-66
2023/06/20 01:58:11;;;;;;;;;;;;;;;21.13;48.7998;101296.7;;;;-67
2023/06/20 01:58:22;;;;;;;0.3;0.1;;;;;;;;;;;;;-67
2023/06/20 02:03:11;;;;;;;;;;;;;;;21.1;48.625;101297.3;;;;-70
2023/06/20 02:08:11;;;;;;;;;;;;;;;21.07;48.78223;101293.5;;;;-68
2023/06/20 02:13:11;;;;;;;;;;;;;;;21.06;48.96289;101295.5;;;;-68
2023/06/20 02:18:10;;;;;;;;;;;;;;;21.01;49.26758;101294.4;;;;-68
2023/06/20 02:23:11;;;;;;;;;;;;;;;21.02;49.13086;101291.5;;;;-69
2023/06/20 02:28:11;;;;;;;;;;;;;;;20.98;49.32031;101292;;;;-68
2023/06/20 02:28:25;;;;;;;0.7;0.4;;;;;;;;;;;;;-68
2023/06/20 02:33:11;;;;;;;;;;;;;;;20.94;49.7168;101288.2;;;;-68
2023/06/20 02:38:10;;;;;;;;;;;;;;;20.96;49.76465;101293;;;;-69
2023/06/20 02:43:13;;;;;;;;;;;;;;;20.92;49.97656;101293.2;;;;-68
2023/06/20 02:48:16;;;;;;;;;;;;;;;20.93;49.875;101296.7;;;;-68
2023/06/20 02:53:17;;;;;;;;;;;;;;;20.91;49.73633;101293.6;;;;-68
2023/06/20 02:58:14;;;;;;;;;;;;;;;20.88;49.8916;101292.9;;;;-69
2023/06/20 02:58:27;;;;;;;0.3;0.1;;;;;;;;;;;;;-69
2023/06/20 03:03:12;;;;;;;;;;;;;;;20.85;50.0498;101294.8;;;;-68
2023/06/20 03:08:14;;;;;;;;;;;;;;;20.85;50.23145;101288.3;;;;-69
2023/06/20 03:13:13;;;;;;;;;;;;;;;20.81;50.24023;101279.5;;;;-68
2023/06/20 03:18:11;;;;;;;;;;;;;;;20.8;50.4541;101276.9;;;;-68
2023/06/20 03:23:10;;;;;;;;;;;;;;;20.75;50.71191;101268.6;;;;-68
2023/06/20 03:28:10;;;;;;;;;;;;;;;20.73;51.0293;101259.5;;;;-69
2023/06/20 03:28:29;;;;;;;0.4;0.1;;;;;;;;;;;;;-68
2023/06/20 03:33:10;;;;;;;;;;;;;;;20.7;50.36328;101250.6;;;;-68
2023/06/20 03:38:11;;;;;;;;;;;;;;;20.69;50.66016;101255.2;;;;-68
2023/06/20 03:43:10;;;;;;;;;;;;;;;20.64;50.68945;101254.2;;;;-68
2023/06/20 03:48:10;;;;;;;;;;;;;;;20.64;50.59766;101256.3;;;;-69
2023/06/20 03:53:10;;;;;;;;;;;;;;;20.62;50.57129;101255.8;;;;-68
2023/06/20 03:58:12;;;;;;;;;;;;;;;20.61;51.15332;101253.9;;;;-68
2023/06/20 03:58:31;;;;;;;0.4;0.1;;;;;;;;;;;;;-68
2023/06/20 04:03:10;;;;;;;;;;;;;;;20.65;50.7002;101254.3;;;;-68
2023/06/20 04:08:10;;;;;;;;;;;;;;;20.65;51.00879;101251.7;;;;-67
2023/06/20 04:13:10;;;;;;;;;;;;;;;20.69;51.45898;101245.2;;;;-68
2023/06/20 04:18:10;;;;;;;;;;;;;;;20.71;51.33496;101246.7;;;;-68
2023/06/20 04:23:10;;;;;;;;;;;;;;;20.73;51.9541;101255.7;;;;-68
2023/06/20 04:28:10;;;;;;;;;;;;;;;20.78;51.54883;101254.8;;;;-67
2023/06/20 04:28:36;;;;;;;0.9;0.5;;;;;;;;;;;;;-69
2023/06/20 04:33:10;;;;;;;;;;;;;;;20.81;52;101259;;;;-67
2023/06/20 04:38:13;;;;;;;;;;;;;;;20.84;52.19629;101257.5;;;;-68
2023/06/20 04:43:10;;;;;;;;;;;;;;;20.87;51.9834;101258.7;;;;-70
2023/06/20 04:48:10;;;;;;;;;;;;;;;20.88;52.09766;101256.6;;;;-68
2023/06/20 04:53:10;;;;;;;;;;;;;;;20.9;51.99805;101261.7;;;;-68
2023/06/20 04:58:11;;;;;;;;;;;;;;;20.91;52.3877;101260.5;;;;-69
2023/06/20 04:58:37;;;;;;;0.6;0.3;;;;;;;;;;;;;-70
2023/06/20 05:03:11;;;;;;;;;;;;;;;20.92;52.19434;101261.2;;;;-70
2023/06/20 05:08:10;;;;;;;;;;;;;;;20.93;52.69727;101255.9;;;;-70
2023/06/20 05:13:10;;;;;;;;;;;;;;;20.96;52.62207;101251.9;;;;-68
2023/06/20 05:18:10;;;;;;;;;;;;;;;20.99;52.28223;101244.1;;;;-69
2023/06/20 05:23:10;;;;;;;;;;;;;;;21.05;53.13477;101238;;;;-69
2023/06/20 05:28:10;;;;;;;;;;;;;;;21.1;52.45508;101237.7;;;;-68
2023/06/20 05:28:40;;;;;;;0.3;0.1;;;;;;;;;;;;;-68
2023/06/20 05:33:10;;;;;;;;;;;;;;;21.15;52.70117;101227.8;;;;-67
2023/06/20 05:38:10;;;;;;;;;;;;;;;21.23;52.66504;101219.7;;;;-69
2023/06/20 05:43:10;;;;;;;;;;;;;;;21.34;52.72461;101215.3;;;;-69
2023/06/20 05:48:11;;;;;;;;;;;;;;;21.46;52.30273;101209.5;;;;-69
2023/06/20 05:53:10;;;;;;;;;;;;;;;21.67;52.18945;101208.1;;;;-67
2023/06/20 05:58:10;;;;;;;;;;;;;;;21.83;52.11816;101208.8;;;;-68
2023/06/20 05:58:43;;;;;;;0.2;0;;;;;;;;;;;;;-68
2023/06/20 06:03:10;;;;;;;;;;;;;;;22.15;51.23828;101199.8;;;;-69
2023/06/20 06:08:13;;;;;;;;;;;;;;;22.85;49.95117;101203.6;;;;-67
2023/06/20 06:13:10;;;;;;;;;;;;;;;23.4;48.89746;101202.2;;;;-69
2023/06/20 06:18:10;;;;;;;;;;;;;;;24.1;47.9375;101205.1;;;;-69
2023/06/20 06:23:10;;;;;;;;;;;;;;;24.42;47.03711;101199.4;;;;-68
2023/06/20 06:28:10;;;;;;;;;;;;;;;24.38;47.77148;101199.2;;;;-67
2023/06/20 06:28:46;;;;;;;0.2;0;;;;;;;;;;;;;-68
2023/06/20 06:33:10;;;;;;;;;;;;;;;24.41;47.6709;101193;;;;-68
2023/06/20 06:38:10;;;;;;;;;;;;;;;24.56;47.62988;101194;;;;-68
2023/06/20 06:43:10;;;;;;;;;;;;;;;24.83;47.66992;101205.4;;;;-70
2023/06/20 06:48:10;;;;;;;;;;;;;;;25.15;47.1377;101209.5;;;;-69
2023/06/20 06:53:10;;;;;;;;;;;;;;;25.2;46.91113;101205.1;;;;-69
2023/06/20 06:58:10;;;;;;;;;;;;;;;25.11;47.17871;101212.8;;;;-68
2023/06/20 06:58:49;;;;;;;0.2;0;;;;;;;;;;;;;-69
2023/06/20 07:03:11;;;;;;;;;;;;;;;25.01;47.50391;101209.6;;;;-68
2023/06/20 07:08:10;;;;;;;;;;;;;;;24.95;47.63672;101196;;;;-68
2023/06/20 07:13:10;;;;;;;;;;;;;;;24.94;47.78418;101194.6;;;;-69
2023/06/20 07:18:10;;;;;;;;;;;;;;;25.05;48.0498;101191.9;;;;-67
2023/06/20 07:23:10;;;;;;;;;;;;;;;25.27;47.7627;101186.6;;;;-69
2023/06/20 07:28:11;;;;;;;;;;;;;;;25.52;47.03711;101184.1;;;;-69
2023/06/20 07:28:55;;;;;;;0.2;0;;;;;;;;;;;;;-68
2023/06/20 07:33:13;;;;;;;;;;;;;;;25.62;47.04883;101181;;;;-70
2023/06/20 07:38:10;;;;;;;;;;;;;;;25.77;46.92383;101175.5;;;;-67
2023/06/20 07:43:10;;;;;;;;;;;;;;;26.06;46.42188;101175.5;;;;-68
2023/06/20 07:48:13;;;;;;;;;;;;;;;26.54;45.71777;101171.9;;;;-67
2023/06/20 07:53:13;;;;;;;;;;;;;;;27.03;44.94336;101180.9;;;;-69
2023/06/20 07:58:10;;;;;;;;;;;;;;;27.47;44.25586;101176.2;;;;-68
2023/06/20 07:58:57;;;;;;;0.2;0;;;;;;;;;;;;;-68
2023/06/20 08:03:10;;;;;;;;;;;;;;;27.85;43.6416;101178.6;;;;-70
2023/06/20 08:08:12;;;;;;;;;;;;;;;28.07;43.31445;101179.2;;;;-68
2023/06/20 08:13:10;;;;;;;;;;;;;;;28.33;43.10449;101167.3;;;;-68
2023/06/20 08:18:10;;;;;;;;;;;;;;;28.65;42.63477;101166.6;;;;-70
2023/06/20 08:23:10;;;;;;;;;;;;;;;28.88;42.44629;101160.6;;;;-68
2023/06/20 08:28:15;;;;;;;;;;;;;;;29.29;41.99512;101151.7;;;;-68
2023/06/20 08:29:01;;;;;;;0.4;0.2;;;;;;;;;;;;;-68
2023/06/20 08:33:11;;;;;;;;;;;;;;;29.57;41.63477;101153.9;;;;-69
2023/06/20 08:38:10;;;;;;;;;;;;;;;29.81;41.40039;101160;;;;-69
2023/06/20 08:43:10;;;;;;;;;;;;;;;30.11;41.06348;101157.8;;;;-68
2023/06/20 08:48:10;;;;;;;;;;;;;;;30.27;40.66992;101146.5;;;;-68
2023/06/20 08:53:11;;;;;;;;;;;;;;;30.56;40.27344;101142.4;;;;-70
2023/06/20 08:58:11;;;;;;;;;;;;;;;30.77;40.02344;101133.2;;;;-68
2023/06/20 08:59:08;;;;;;;0.4;0.2;;;;;;;;;;;;;-67
2023/06/20 09:03:10;;;;;;;;;;;;;;;31.05;39.70801;101137.8;;;;-68
2023/06/20 09:08:10;;;;;;;;;;;;;;;31.22;39.66309;101135.7;;;;-68
2023/06/20 09:13:10;;;;;;;;;;;;;;;31.5;39.26563;101132.1;;;;-68
2023/06/20 09:18:11;;;;;;;;;;;;;;;31.75;39.02832;101132.6;;;;-69
2023/06/20 09:23:11;;;;;;;;;;;;;;;31.85;38.62402;101141.8;;;;-69
2023/06/20 09:28:16;;;;;;;;;;;;;;;32.06;38.25488;101134.1;;;;-68
2023/06/20 09:29:15;;;;;;;0.1;0;;;;;;;;;;;;;-68
2023/06/20 09:33:10;;;;;;;;;;;;;;;32.09;38.11621;101130.6;;;;-67
2023/06/20 09:38:10;;;;;;;;;;;;;;;32.42;37.79102;101118.9;;;;-67
2023/06/20 09:43:10;;;;;;;;;;;;;;;32.67;37.17578;101126.2;;;;-70
2023/06/20 09:48:11;;;;;;;;;;;;;;;32.82;36.7627;101116.1;;;;-70
2023/06/20 09:53:15;;;;;;;;;;;;;;;32.78;36.72461;101111.1;;;;-70
2023/06/20 09:58:11;;;;;;;;;;;;;;;32.91;36.65234;101103.4;;;;-70
2023/06/20 09:59:29;;;;;;;0.2;0.1;;;;;;;;;;;;;-72
2023/06/20 10:03:15;;;;;;;;;;;;;;;32.84;37.12988;101108.8;;;;-70
2023/06/20 10:13:11;;;;;;;;;;;;;;;33.2;36.51074;101110.6;;;;-72
2023/06/20 10:18:20;;;;;;;;;;;;;;;33.34;36.25098;101118.6;;;;-72
2023/06/20 10:23:11;;;;;;;;;;;;;;;33.42;36.25781;101113;;;;-70
2023/06/20 10:28:13;;;;;;;;;;;;;;;33.51;36.01563;101113.2;;;;-68
2023/06/20 10:29:21;;;;;;;0.2;0.1;;;;;;;;;;;;;-68
2023/06/20 10:33:14;;;;;;;;;;;;;;;33.57;35.83203;101105.8;;;;-68
2023/06/20 10:38:13;;;;;;;;;;;;;;;33.57;35.93945;101099.1;;;;-69
2023/06/20 10:43:18;;;;;;;;;;;;;;;33.62;36.02539;101106.8;;;;-68
2023/06/20 10:48:12;;;;;;;;;;;;;;;33.69;36.23145;101098.3;;;;-68
2023/06/20 10:53:10;;;;;;;;;;;;;;;33.84;36.89258;101082.3;;;;-67
2023/06/20 10:58:10;;;;;;;;;;;;;;;34.01;36.5752;101067.8;;;;-68
2023/06/20 10:59:32;;;;;;;0.2;0;;;;;;;;;;;;;-69
2023/06/20 11:03:13;;;;;;;;;;;;;;;34.23;36.65137;101072.6;;;;-69
2023/06/20 11:08:10;;;;;;;;;;;;;;;34.33;37.13281;101063.1;;;;-67
2023/06/20 11:13:11;;;;;;;;;;;;;;;34.28;36.98633;101057.6;;;;-68
2023/06/20 11:18:11;;;;;;;;;;;;;;;34.38;37.10059;101057.7;;;;-68
2023/06/20 11:23:12;;;;;;;;;;;;;;;34.43;37.40137;101047.7;;;;-68
2023/06/20 11:28:14;;;;;;;;;;;;;;;34.63;36.67188;101043.9;;;;-68
2023/06/20 11:29:39;;;;;;;0.2;0.1;;;;;;;;;;;;;-69
2023/06/20 11:33:11;;;;;;;;;;;;;;;34.68;36.68848;101045.4;;;;-67
2023/06/20 11:38:10;;;;;;;;;;;;;;;35.04;37.07227;101032.4;;;;-68
2023/06/20 11:43:10;;;;;;;;;;;;;;;35.09;36.60254;101038.3;;;;-68
2023/06/20 11:48:19;;;;;;;;;;;;;;;35.03;36.90527;101035.3;;;;-68
2023/06/20 11:53:20;;;;;;;;;;;;;;;35.08;36.34082;101033.8;;;;-67
2023/06/20 11:58:11;;;;;;;;;;;;;;;35.35;36.55176;101037.4;;;;-70
2023/06/20 11:59:41;;;;;;;0.2;0;;;;;;;;;;;;;-68
2023/06/20 12:03:12;;;;;;;;;;;;;;;35.57;36.40332;101045.1;;;;-69
2023/06/20 12:08:10;;;;;;;;;;;;;;;35.69;36.24609;101044.9;;;;-70
2023/06/20 12:13:14;;;;;;;;;;;;;;;35.94;35.69727;101041.5;;;;-69
2023/06/20 12:18:10;;;;;;;;;;;;;;;35.78;35.35254;101044.1;;;;-67
2023/06/20 12:23:10;;;;;;;;;;;;;;;35.68;35.36816;101043.1;;;;-68
2023/06/20 12:28:10;;;;;;;;;;;;;;;35.86;35.70313;101049;;;;-68
2023/06/20 12:29:47;;;;;;;0.2;0.1;;;;;;;;;;;;;-69
2023/06/20 12:33:12;;;;;;;;;;;;;;;35.85;35.01367;101037.3;;;;-68
2023/06/20 12:38:10;;;;;;;;;;;;;;;35.99;34.98828;101019.7;;;;-69
2023/06/20 12:43:13;;;;;;;;;;;;;;;36.3;34.82227;100993.7;;;;-68
2023/06/20 12:48:10;;;;;;;;;;;;;;;36.49;34.20605;100985.9;;;;-69
2023/06/20 12:53:10;;;;;;;;;;;;;;;36.56;34.27051;100980.4;;;;-70
2023/06/20 12:58:12;;;;;;;;;;;;;;;36.63;34.19336;100972.5;;;;-68
2023/06/20 12:59:53;;;;;;;0.2;0;;;;;;;;;;;;;-67
2023/06/20 13:03:12;;;;;;;;;;;;;;;36.62;33.37109;100974.1;;;;-69
2023/06/20 13:08:11;;;;;;;;;;;;;;;36.57;33.96191;100982.5;;;;-68
2023/06/20 13:13:13;;;;;;;;;;;;;;;36.43;34.36816;100960.4;;;;-68
2023/06/20 13:18:11;;;;;;;;;;;;;;;36.41;33.52344;100960.8;;;;-69
2023/06/20 13:23:10;;;;;;;;;;;;;;;36.26;33.85742;100963.7;;;;-68
2023/06/20 13:28:10;;;;;;;;;;;;;;;36.37;33.9834;100951.9;;;;-68
2023/06/20 13:30:01;;;;;;;0.2;0;;;;;;;;;;;;;-69
2023/06/20 13:33:13;;;;;;;;;;;;;;;36.37;33.3291;100948.6;;;;-68
2023/06/20 13:38:10;;;;;;;;;;;;;;;36.45;33.22852;100952.4;;;;-69
2023/06/20 13:43:12;;;;;;;;;;;;;;;36.24;34.25879;100944.2;;;;-67
2023/06/20 13:48:10;;;;;;;;;;;;;;;36.07;33.7832;100947.5;;;;-69
2023/06/20 13:53:13;;;;;;;;;;;;;;;35.9;34.22168;100948.6;;;;-69
2023/06/20 13:58:10;;;;;;;;;;;;;;;35.74;34.13867;100946.6;;;;-68
2023/06/20 14:00:11;;;;;;;0.2;0;;;;;;;;;;;;;-69
2023/06/20 14:03:10;;;;;;;;;;;;;;;35.66;34.29883;100946.3;;;;-68
2023/06/20 14:08:10;;;;;;;;;;;;;;;35.72;34.65918;100931.7;;;;-68
2023/06/20 14:13:11;;;;;;;;;;;;;;;35.71;34.07715;100926.2;;;;-68
2023/06/20 14:18:10;;;;;;;;;;;;;;;35.46;34.2832;100927.3;;;;-68
2023/06/20 14:23:10;;;;;;;;;;;;;;;35.22;34.82324;100936.6;;;;-67
2023/06/20 14:28:15;;;;;;;;;;;;;;;34.92;35.3457;100935.6;;;;-68
2023/06/20 14:30:14;;;;;;;0.2;0;;;;;;;;;;;;;-68
2023/06/20 14:33:10;;;;;;;;;;;;;;;34.66;35.78711;100925.3;;;;-67
2023/06/20 14:38:10;;;;;;;;;;;;;;;34.38;35.96582;100911.8;;;;-67
2023/06/20 14:43:10;;;;;;;;;;;;;;;34.14;36.10156;100894.8;;;;-70
2023/06/20 14:48:13;;;;;;;;;;;;;;;33.95;36.27539;100893.8;;;;-68
2023/06/20 14:53:10;;;;;;;;;;;;;;;33.77;35.97754;100883.9;;;;-69
2023/06/20 14:58:10;;;;;;;;;;;;;;;33.58;36.28125;100869.8;;;;-68
2023/06/20 15:00:21;;;;;;;0.2;0;;;;;;;;;;;;;-68
2023/06/20 15:03:10;;;;;;;;;;;;;;;33.43;36.1748;100863.1;;;;-68
2023/06/20 15:08:10;;;;;;;;;;;;;;;33.25;36.06641;100857.6;;;;-67
2023/06/20 15:13:10;;;;;;;;;;;;;;;33.07;36.35938;100875.2;;;;-66
2023/06/20 15:18:12;;;;;;;;;;;;;;;32.82;36.83398;100870.6;;;;-69
2023/06/20 15:23:10;;;;;;;;;;;;;;;32.6;36.60449;100903.9;;;;-68
2023/06/20 15:28:12;;;;;;;;;;;;;;;32.41;36.53027;101011.5;;;;-67
2023/06/20 15:30:31;;;;;;;0.3;0.2;;;;;;;;;;;;;-69
2023/06/20 15:33:10;;;;;;;;;;;;;;;32.01;37.34473;101087.5;;;;-69
2023/06/20 15:38:10;;;;;;;;;;;;;;;31.25;40.38184;101127.4;;;;-71
2023/06/20 15:43:10;;;;;;;;;;;;;;;30.4;42.71777;101095.4;;;;-70
2023/06/20 15:48:13;;;;;;;;;;;;;;;29.76;43.97852;101074.1;;;;-71
2023/06/20 15:53:10;;;;;;;;;;;;;;;29.24;45.08203;101135;;;;-70
2023/06/20 15:58:13;;;;;;;;;;;;;;;28.45;47.09961;101166;;;;-71
2023/06/20 16:00:33;;;;;;;0.3;0.1;;;;;;;;;;;;;-71
2023/06/20 16:03:11;;;;;;;;;;;;;;;28.15;46.99805;101121.7;;;;-71
2023/06/20 16:08:14;;;;;;;;;;;;;;;27.79;48.22754;101147;;;;-72
2023/06/20 16:13:10;;;;;;;;;;;;;;;27.45;48.30664;101116.5;;;;-70
2023/06/20 16:18:10;;;;;;;;;;;;;;;27.2;48.4082;101093.1;;;;-70
2023/06/20 16:23:15;;;;;;;;;;;;;;;26.99;48.31738;101068.7;;;;-72
2023/06/20 16:28:14;;;;;;;;;;;;;;;26.75;48.46484;101063.2;;;;-70
2023/06/20 16:30:38;;;;;;;0.2;0.1;;;;;;;;;;;;;-69
2023/06/20 16:33:12;;;;;;;;;;;;;;;26.58;49.04688;101040.1;;;;-71
2023/06/20 16:38:11;;;;;;;;;;;;;;;26.41;50.76563;101030.6;;;;-72
2023/06/20 16:43:12;;;;;;;;;;;;;;;26.26;49.99707;101055.5;;;;-70
2023/06/20 16:48:10;;;;;;;;;;;;;;;26.04;50.9082;101049.5;;;;-70
2023/06/20 16:53:10;;;;;;;;;;;;;;;25.88;50.64844;101039.9;;;;-71
2023/06/20 16:58:12;;;;;;;;;;;;;;;25.73;52.01758;101024.2;;;;-70
2023/06/20 17:00:42;;;;;;;0.2;0.1;;;;;;;;;;;;;-69
2023/06/20 17:03:10;;;;;;;;;;;;;;;25.59;51.65527;101021;;;;-71
2023/06/20 17:08:11;;;;;;;;;;;;;;;25.42;52.98633;101020;;;;-70
2023/06/20 17:13:10;;;;;;;;;;;;;;;25.29;53.21289;101022.9;;;;-70
2023/06/20 17:18:10;;;;;;;;;;;;;;;25.12;54.61035;101028.8;;;;-70
2023/06/20 17:23:10;;;;;;;;;;;;;;;24.99;54.54883;101021.7;;;;-70
2023/06/20 17:28:12;;;;;;;;;;;;;;;24.87;54.6377;101020.6;;;;-70
2023/06/20 17:30:47;;;;;;;0.2;0;;;;;;;;;;;;;-70
2023/06/20 17:33:12;;;;;;;;;;;;;;;24.77;55.78906;101017.9;;;;-70
2023/06/20 17:38:10;;;;;;;;;;;;;;;24.68;57.27344;101017.6;;;;-70
2023/06/20 17:43:10;;;;;;;;;;;;;;;24.61;56.45898;101027.1;;;;-70
2023/06/20 17:48:10;;;;;;;;;;;;;;;24.56;56.09668;101040.3;;;;-72
2023/06/20 17:53:10;;;;;;;;;;;;;;;24.52;58.55176;101044.9;;;;-72
2023/06/20 17:58:10;;;;;;;;;;;;;;;24.42;57.72363;101040.2;;;;-70
2023/06/20 18:00:51;;;;;;;0.2;0;;;;;;;;;;;;;-69
2023/06/20 18:03:12;;;;;;;;;;;;;;;24.33;60.22852;101043.9;;;;-70
2023/06/20 18:08:10;;;;;;;;;;;;;;;24.2;59.59082;101049.6;;;;-68
2023/06/20 18:13:12;;;;;;;;;;;;;;;24.14;60.54688;101049.3;;;;-69
2023/06/20 18:18:10;;;;;;;;;;;;;;;24.07;60.57129;101054.1;;;;-69
2023/06/20 18:23:11;;;;;;;;;;;;;;;24;59.69043;101049.3;;;;-71
2023/06/20 18:28:10;;;;;;;;;;;;;;;23.92;60.58496;101053.6;;;;-68
2023/06/20 18:30:55;;;;;;;0.2;0;;;;;;;;;;;;;-69
2023/06/20 18:33:10;;;;;;;;;;;;;;;23.85;59.38379;101048.9;;;;-70
2023/06/20 18:38:11;;;;;;;;;;;;;;;23.77;59.24609;101038.4;;;;-67
2023/06/20 18:43:10;;;;;;;;;;;;;;;23.73;60.125;101039.3;;;;-69
2023/06/20 18:48:10;;;;;;;;;;;;;;;23.65;59.07031;101039.4;;;;-69
2023/06/20 18:53:10;;;;;;;;;;;;;;;23.57;59.4375;101045.8;;;;-69
2023/06/20 18:58:10;;;;;;;;;;;;;;;23.55;59.52734;101047.9;;;;-68
2023/06/20 19:01:03;;;;;;;0.2;0;;;;;;;;;;;;;-70
2023/06/20 19:03:20;;;;;;;;;;;;;;;;;;;;;
2023/06/20 19:08:10;;;;;;;;;;;;;;;23.44;60.4873;101060.6;;;;-69
2023/06/20 19:13:11;;;;;;;;;;;;;;;23.34;60.54199;101060.1;;;;-68
2023/06/20 19:18:10;;;;;;;;;;;;;;;23.26;63.21094;101051.8;;;;-68
2023/06/20 19:23:10;;;;;;;;;;;;;;;23.18;61.68945;101053.8;;;;-69
2023/06/20 19:28:12;;;;;;;;;;;;;;;23.14;61.85547;101057.3;;;;-66
2023/06/20 19:31:03;;;;;;;0.7;0.4;;;;;;;;;;;;;-65
2023/06/20 19:33:10;;;;;;;;;;;;;;;23.05;61.95801;101054.7;;;;-68
2023/06/20 19:38:10;;;;;;;;;;;;;;;23;61.95117;101058.3;;;;-65
2023/06/20 19:43:10;;;;;;;;;;;;;;;22.95;62.70996;101050.8;;;;-65
2023/06/20 19:48:10;;;;;;;;;;;;;;;22.91;62.37305;101052.6;;;;-66
2023/06/20 19:53:10;;;;;;;;;;;;;;;22.85;61.4834;101064.5;;;;-65
2023/06/20 19:58:10;;;;;;;;;;;;;;;22.82;61.4668;101075.2;;;;-65
2023/06/20 20:01:06;;;;;;;2.3;0.3;;;;;;;;;;;;;-65
2023/06/20 20:03:10;;;;;;;;;;;;;;;22.76;62.99219;101085.5;;;;-64
2023/06/20 20:08:10;;;;;;;;;;;;;;;22.67;62.96777;101084.5;;;;-66
2023/06/20 20:13:10;;;;;;;;;;;;;;;22.6;63.07227;101095.2;;;;-70
2023/06/20 20:18:10;;;;;;;;;;;;;;;22.53;62.91309;101101.4;;;;-67
2023/06/20 20:23:12;;;;;;;;;;;;;;;22.44;64.00977;101110.5;;;;-69
2023/06/20 20:28:12;;;;;;;;;;;;;;;22.33;65.55762;101116.8;;;;-69
2023/06/20 20:31:10;;;;;;;0.3;0.1;;;;;;;;;;;;;-68
2023/06/20 20:33:10;;;;;;;;;;;;;;;22.24;66.70898;101127.4;;;;-69
2023/06/20 20:38:20;;;;;;;;;;;;;;;22.16;65.96777;101135.1;;;;-68
2023/06/20 20:43:12;;;;;;;;;;;;;;;22.13;66.70313;101141.1;;;;-68
2023/06/20 20:48:10;;;;;;;;;;;;;;;22.08;66.86914;101142.4;;;;-69
2023/06/20 20:53:10;;;;;;;;;;;;;;;22.04;66.79395;101145.3;;;;-69
2023/06/20 20:58:10;;;;;;;;;;;;;;;22.02;67.16699;101148.2;;;;-70
2023/06/20 21:01:14;;;;;;;0.2;0;;;;;;;;;;;;;-68
2023/06/20 21:03:10;;;;;;;;;;;;;;;21.97;67.77441;101148.1;;;;-68
2023/06/20 21:08:10;;;;;;;;;;;;;;;21.94;67.0752;101145.4;;;;-68
2023/06/20 21:13:10;;;;;;;;;;;;;;;21.92;66.65039;101135.3;;;;-68
2023/06/20 21:18:10;;;;;;;;;;;;;;;21.9;67.20508;101131.1;;;;-69
2023/06/20 21:23:10;;;;;;;;;;;;;;;21.87;67.13281;101127.2;;;;-68
2023/06/20 21:28:13;;;;;;;;;;;;;;;21.82;67.37598;101121.1;;;;-68
2023/06/20 21:31:17;;;;;;;0.5;0.1;;;;;;;;;;;;;-68
2023/06/20 21:33:10;;;;;;;;;;;;;;;21.81;67.375;101123.7;;;;-69
2023/06/20 21:38:11;;;;;;;;;;;;;;;21.75;67.24121;101128.3;;;;-69
2023/06/20 21:43:11;;;;;;;;;;;;;;;21.69;66.84473;101134.3;;;;-67
2023/06/20 21:48:10;;;;;;;;;;;;;;;21.64;67.54297;101127;;;;-68
2023/06/20 21:53:16;;;;;;;;;;;;;;;21.63;67.25684;101133.5;;;;-68
2023/06/20 21:58:12;;;;;;;;;;;;;;;21.55;67.34668;101136.4;;;;-68
2023/06/20 22:01:20;;;;;;;0.2;0.1;;;;;;;;;;;;;-68
2023/06/20 22:03:13;;;;;;;;;;;;;;;21.52;67.39941;101137.7;;;;-69
2023/06/20 22:08:19;;;;;;;;;;;;;;;21.47;67.6875;101140.5;;;;-69
2023/06/20 22:13:12;;;;;;;;;;;;;;;21.41;67.57715;101145.8;;;;-68
2023/06/20 22:18:11;;;;;;;;;;;;;;;21.36;68.17188;101147.6;;;;-68
2023/06/20 22:23:11;;;;;;;;;;;;;;;21.31;67.74414;101141.8;;;;-69
2023/06/20 22:28:10;;;;;;;;;;;;;;;21.25;68.32617;101145.4;;;;-69
2023/06/20 22:31:23;;;;;;;0.3;0.2;;;;;;;;;;;;;-68
2023/06/20 22:33:10;;;;;;;;;;;;;;;21.16;68.6416;101150;;;;-69
2023/06/20 22:38:14;;;;;;;;;;;;;;;21.1;68.62207;101153.9;;;;-69
2023/06/20 22:43:13;;;;;;;;;;;;;;;20.99;70.83203;101156.6;;;;-68
2023/06/20 22:48:16;;;;;;;;;;;;;;;20.96;70.22656;101155.5;;;;-69
2023/06/20 22:53:11;;;;;;;;;;;;;;;20.92;70.99219;101160.7;;;;-69
2023/06/20 22:58:10;;;;;;;;;;;;;;;20.86;70.72266;101168;;;;-70
2023/06/20 23:01:29;;;;;;;0.2;0.1;;;;;;;;;;;;;-69
2023/06/20 23:03:10;;;;;;;;;;;;;;;20.81;71.59961;101170;;;;-69
2023/06/20 23:08:11;;;;;;;;;;;;;;;20.74;70.9082;101170.1;;;;-68
2023/06/20 23:13:10;;;;;;;;;;;;;;;20.71;71.72949;101169.7;;;;-69
2023/06/20 23:18:10;;;;;;;;;;;;;;;20.69;72.80469;101175.3;;;;-68
2023/06/20 23:23:12;;;;;;;;;;;;;;;20.65;72.41309;101182;;;;-69
2023/06/20 23:28:13;;;;;;;;;;;;;;;20.6;71.84961;101184.1;;;;-69
2023/06/20 23:31:31;;;;;;;1.1;0.4;;;;;;;;;;;;;-67
2023/06/20 23:33:11;;;;;;;;;;;;;;;20.57;72.58301;101186;;;;-68
2023/06/20 23:38:10;;;;;;;;;;;;;;;20.54;72.82813;101192.6;;;;-69
2023/06/20 23:43:13;;;;;;;;;;;;;;;20.49;73.83984;101195.8;;;;-69
2023/06/20 23:48:10;;;;;;;;;;;;;;;20.47;74.10938;101197.7;;;;-68
2023/06/20 23:53:25;;;;;;;;;;;;;;;20.46;74.79785;101199.5;;;;-68
2023/06/20 23:58:10;;;;;;;;;;;;;;;20.47;75.01465;101200.7;;;;-68
